Time;durP1;ratioP1;P1;durP2;ratioP2;P2;SDS_P1;SDS_P2;PMS_P1;PMS_P2;Temp;Humidity;BMP_temperature;BMP_pressure;BME280_temperature;BME280_humidity;BME280_pressure;Samples;Min_cycle;Max_cycle;Signal;HPM_P1;HPM_P2
2021/06/29 00:00:30;;;;;;;58.47;2.60;;;17.30;99.90;;;;;;5052946;28;20910;-74
2021/06/29 00:03:02;;;;;;;59.50;4.13;;;17.20;99.90;;;;;;5052553;28;20499;-72
2021/06/29 00:05:29;;;;;;;58.57;2.80;;;17.20;99.90;;;;;;5053109;28;20446;-72
2021/06/29 00:07:56;;;;;;;58.07;2.70;;;17.20;99.90;;;;;;5053121;28;20485;-74
2021/06/29 00:10:23;;;;;;;57.97;3.00;;;17.20;99.90;;;;;;5052577;28;20546;-75
2021/06/29 00:12:50;;;;;;;58.03;2.90;;;17.20;99.90;;;;;;5052591;28;20836;-74
2021/06/29 00:15:17;;;;;;;58.47;3.10;;;17.20;99.90;;;;;;5052921;28;20536;-75
2021/06/29 00:17:45;;;;;;;58.07;2.70;;;17.20;99.90;;;;;;5052902;28;20453;-74
2021/06/29 00:20:14;;;;;;;58.33;2.80;;;17.20;99.90;;;;;;5052645;28;20453;-74
2021/06/29 00:22:41;;;;;;;58.20;2.90;;;17.10;99.90;;;;;;5052138;28;20560;-74
2021/06/29 00:25:09;;;;;;;58.07;2.57;;;17.20;99.90;;;;;;5052541;28;20973;-74
2021/06/29 00:27:36;;;;;;;57.97;2.53;;;17.10;99.90;;;;;;5052577;28;20929;-72
2021/06/29 00:30:03;;;;;;;58.27;2.60;;;17.20;99.90;;;;;;5052739;28;20505;-72
2021/06/29 00:32:30;;;;;;;58.87;3.17;;;17.10;99.90;;;;;;5052524;28;20899;-72
2021/06/29 00:34:58;;;;;;;58.37;2.77;;;17.10;99.90;;;;;;5052537;28;20894;-72
2021/06/29 00:37:25;;;;;;;58.23;2.90;;;17.10;99.90;;;;;;5052363;28;20529;-72
2021/06/29 00:39:52;;;;;;;58.40;2.83;;;17.00;99.90;;;;;;5052276;28;20537;-72
2021/06/29 00:42:19;;;;;;;58.20;2.87;;;17.00;99.90;;;;;;5052197;28;20538;-72
2021/06/29 00:44:47;;;;;;;58.27;2.87;;;17.00;99.90;;;;;;5052433;28;20460;-72
2021/06/29 00:47:14;;;;;;;58.27;2.40;;;17.10;99.90;;;;;;5052676;28;20496;-72
2021/06/29 00:49:41;;;;;;;58.20;2.80;;;17.10;99.90;;;;;;5052706;28;20454;-72
2021/06/29 00:52:13;;;;;;;57.77;2.60;;;17.10;99.90;;;;;;5051806;28;20461;-72
2021/06/29 00:54:40;;;;;;;58.37;2.77;;;17.10;99.90;;;;;;5051645;28;20451;-73
2021/06/29 00:57:09;;;;;;;58.13;2.77;;;17.20;99.90;;;;;;5052155;28;20452;-72
2021/06/29 00:59:37;;;;;;;58.40;2.50;;;17.20;99.90;;;;;;5052050;28;20905;-71
2021/06/29 01:02:05;;;;;;;58.03;2.53;;;17.20;99.90;;;;;;5051655;28;20541;-72
2021/06/29 01:04:33;;;;;;;58.40;3.10;;;17.20;99.90;;;;;;5051846;28;20552;-72
2021/06/29 01:07:00;;;;;;;58.07;2.60;;;17.20;99.90;;;;;;5051708;28;20577;-71
2021/06/29 01:09:28;;;;;;;57.57;2.83;;;17.20;99.90;;;;;;5052026;28;20504;-74
2021/06/29 01:11:55;;;;;;;58.07;2.83;;;17.20;99.90;;;;;;5051441;28;20537;-74
2021/06/29 01:14:22;;;;;;;58.20;2.80;;;17.20;99.90;;;;;;5051867;28;20472;-73
2021/06/29 01:16:49;;;;;;;58.37;2.80;;;17.20;99.90;;;;;;5051853;28;20874;-74
2021/06/29 01:19:19;;;;;;;58.23;2.90;;;17.10;99.90;;;;;;5051417;28;20984;-74
2021/06/29 01:21:50;;;;;;;58.10;2.80;;;17.10;99.90;;;;;;5051647;28;20495;-73
2021/06/29 01:24:22;;;;;;;58.13;2.80;;;17.10;99.90;;;;;;5051965;28;20502;-74
2021/06/29 01:26:55;;;;;;;58.30;3.00;;;17.10;99.90;;;;;;5051678;28;20540;-73
2021/06/29 01:29:34;;;;;;;58.27;2.80;;;17.10;99.90;;;;;;5051709;28;20492;-74
2021/06/29 01:31:59;;;;;;;58.17;2.60;;;17.10;99.90;;;;;;5051323;28;20462;-73
2021/06/29 01:34:26;;;;;;;58.27;2.60;;;17.10;99.90;;;;;;5051481;28;20474;-74
2021/06/29 01:36:54;;;;;;;58.07;2.70;;;17.10;99.90;;;;;;5051684;28;20213;-74
2021/06/29 01:39:21;;;;;;;57.80;2.70;;;17.10;99.90;;;;;;5051616;28;20486;-75
2021/06/29 01:41:48;;;;;;;58.40;2.90;;;17.10;99.90;;;;;;5051298;28;20481;-73
2021/06/29 01:44:21;;;;;;;58.33;2.70;;;17.10;99.90;;;;;;5051287;28;20484;-73
2021/06/29 01:46:51;;;;;;;58.07;2.70;;;17.10;99.90;;;;;;5051682;28;20456;-73
2021/06/29 01:49:23;;;;;;;58.17;2.73;;;17.10;99.90;;;;;;5051541;28;20456;-74
2021/06/29 01:51:50;;;;;;;58.30;2.70;;;17.10;99.90;;;;;;5051090;28;20452;-74
2021/06/29 01:54:18;;;;;;;58.17;2.50;;;17.10;99.90;;;;;;5051192;28;20904;-74
2021/06/29 01:56:46;;;;;;;58.70;3.90;;;17.10;99.90;;;;;;5051160;28;20456;-73
2021/06/29 01:59:15;;;;;;;58.63;2.90;;;17.10;99.90;;;;;;5051567;28;20450;-73
2021/06/29 02:01:43;;;;;;;59.07;3.23;;;17.00;99.90;;;;;;5051221;28;20460;-74
2021/06/29 02:04:11;;;;;;;58.17;2.80;;;17.00;99.90;;;;;;5051348;28;20543;-73
2021/06/29 02:06:38;;;;;;;57.97;2.80;;;17.00;99.90;;;;;;5054722;28;20529;-71
2021/06/29 02:09:07;;;;;;;59.20;3.07;;;17.00;99.90;;;;;;5054981;28;20585;-71
2021/06/29 02:11:36;;;;;;;58.40;2.70;;;16.90;99.90;;;;;;5054720;28;20980;-71
2021/06/29 02:14:03;;;;;;;58.27;2.60;;;16.90;99.90;;;;;;5055145;28;20572;-72
2021/06/29 02:16:30;;;;;;;58.23;2.90;;;16.90;99.90;;;;;;5054951;28;21031;-72
2021/06/29 02:18:57;;;;;;;58.57;2.77;;;16.90;99.90;;;;;;5054909;28;20536;-73
2021/06/29 02:21:24;;;;;;;58.07;2.50;;;16.90;99.90;;;;;;5054739;28;20895;-72
2021/06/29 02:23:51;;;;;;;58.07;2.40;;;16.90;99.90;;;;;;5054504;28;20566;-72
2021/06/29 02:26:19;;;;;;;58.30;2.60;;;16.90;99.90;;;;;;5055067;28;20837;-71
2021/06/29 02:28:47;;;;;;;58.37;2.90;;;16.80;99.90;;;;;;5054788;28;20482;-72
2021/06/29 02:31:14;;;;;;;58.47;2.70;;;16.80;99.90;;;;;;5054795;28;20504;-72
2021/06/29 02:33:41;;;;;;;58.23;2.63;;;16.80;99.90;;;;;;5054486;28;20480;-72
2021/06/29 02:36:08;;;;;;;57.87;2.73;;;16.80;99.90;;;;;;5054657;28;20541;-72
2021/06/29 02:38:36;;;;;;;57.97;2.80;;;16.80;99.90;;;;;;5054974;28;20550;-72
2021/06/29 02:41:03;;;;;;;57.87;2.70;;;16.80;99.90;;;;;;5054657;28;20441;-72
2021/06/29 02:43:30;;;;;;;58.10;2.50;;;16.90;99.90;;;;;;5054322;28;20473;-72
2021/06/29 02:45:58;;;;;;;58.30;2.97;;;16.90;99.90;;;;;;5054471;28;20493;-73
2021/06/29 02:48:25;;;;;;;58.27;2.70;;;16.90;99.90;;;;;;5054428;28;20589;-72
2021/06/29 02:50:52;;;;;;;58.17;2.40;;;16.90;99.90;;;;;;5054262;28;20493;-72
2021/06/29 02:53:19;;;;;;;58.80;3.13;;;16.90;99.90;;;;;;5053935;28;20475;-73
2021/06/29 02:55:46;;;;;;;58.17;2.50;;;16.90;99.90;;;;;;5054430;28;20487;-72
2021/06/29 02:58:13;;;;;;;57.97;2.60;;;16.90;99.90;;;;;;5054372;28;20473;-72
2021/06/29 03:00:40;;;;;;;60.60;3.33;;;17.00;99.90;;;;;;5054244;28;20894;-72
2021/06/29 03:03:09;;;;;;;58.17;2.70;;;16.90;99.90;;;;;;5053840;28;20509;-73
2021/06/29 03:05:36;;;;;;;58.07;2.60;;;17.00;99.90;;;;;;5053953;28;21013;-73
2021/06/29 03:08:03;;;;;;;57.87;2.77;;;17.00;99.90;;;;;;5053964;28;20571;-72
2021/06/29 03:10:30;;;;;;;57.97;2.73;;;17.00;99.90;;;;;;5053976;28;20541;-72
2021/06/29 03:12:57;;;;;;;57.97;2.80;;;17.00;99.90;;;;;;5053729;28;20509;-72
2021/06/29 03:15:24;;;;;;;58.50;2.70;;;17.00;99.90;;;;;;5054023;28;20543;-72
2021/06/29 03:17:51;;;;;;;58.10;2.77;;;17.00;99.90;;;;;;5053440;28;20962;-72
2021/06/29 03:20:19;;;;;;;58.60;3.63;;;17.00;99.90;;;;;;5053770;28;20455;-72
2021/06/29 03:22:46;;;;;;;58.27;2.77;;;17.00;99.90;;;;;;5053218;28;20516;-73
2021/06/29 03:25:13;;;;;;;57.67;2.50;;;17.00;99.90;;;;;;5053861;28;20547;-73
2021/06/29 03:27:41;;;;;;;57.77;2.80;;;17.00;99.90;;;;;;5053728;28;20536;-73
2021/06/29 03:30:09;;;;;;;58.03;2.80;;;17.00;99.90;;;;;;5053653;28;20457;-72
2021/06/29 03:32:36;;;;;;;58.23;2.70;;;16.90;99.90;;;;;;5053082;28;20506;-73
2021/06/29 03:35:07;;;;;;;58.30;2.80;;;17.00;99.90;;;;;;5053800;28;20442;-72
2021/06/29 03:37:36;;;;;;;58.00;2.60;;;16.90;99.90;;;;;;5053678;28;21021;-72
2021/06/29 03:40:04;;;;;;;57.73;2.70;;;16.90;99.90;;;;;;5053598;28;20858;-72
2021/06/29 03:42:31;;;;;;;58.07;2.70;;;16.90;99.90;;;;;;5052986;28;20493;-73
2021/06/29 03:44:58;;;;;;;57.87;2.80;;;17.00;99.90;;;;;;5053231;28;20482;-73
2021/06/29 03:47:24;;;;;;;58.17;2.93;;;17.00;99.90;;;;;;5053544;28;20513;-73
2021/06/29 03:49:51;;;;;;;58.37;2.87;;;17.00;99.90;;;;;;5053407;28;20532;-73
2021/06/29 03:52:18;;;;;;;58.30;2.70;;;16.90;99.90;;;;;;5052981;28;20481;-73
2021/06/29 03:54:47;;;;;;;58.40;2.90;;;16.90;99.90;;;;;;5053036;28;20454;-72
2021/06/29 03:57:14;;;;;;;59.37;3.13;;;16.90;99.90;;;;;;5053085;28;20542;-73
2021/06/29 03:59:40;;;;;;;58.20;2.60;;;16.90;99.90;;;;;;5052979;28;20534;-73
2021/06/29 04:02:07;;;;;;;58.33;2.50;;;16.90;99.90;;;;;;5052960;28;20525;-73
2021/06/29 04:04:34;;;;;;;58.27;2.90;;;16.80;99.90;;;;;;5053044;28;20553;-73
2021/06/29 04:07:03;;;;;;;58.40;3.00;;;16.80;99.90;;;;;;5053027;28;20897;-73
2021/06/29 04:09:30;;;;;;;57.90;2.70;;;16.80;99.90;;;;;;5052858;28;20482;-74
2021/06/29 04:11:58;;;;;;;58.00;2.60;;;16.80;99.90;;;;;;5052588;28;20451;-73
2021/06/29 04:14:25;;;;;;;58.60;3.27;;;16.80;99.90;;;;;;5052736;28;20565;-73
2021/06/29 04:16:52;;;;;;;58.03;2.40;;;16.90;99.90;;;;;;5052865;28;20579;-74
2021/06/29 04:19:19;;;;;;;57.90;2.70;;;16.90;99.90;;;;;;5053114;28;20541;-73
2021/06/29 04:21:46;;;;;;;57.77;2.50;;;16.90;99.90;;;;;;5052334;28;20900;-74
2021/06/29 04:24:12;;;;;;;58.03;2.63;;;16.90;99.90;;;;;;5052609;28;20509;-73
2021/06/29 04:26:39;;;;;;;57.90;2.67;;;16.90;99.90;;;;;;5052547;28;20524;-73
2021/06/29 04:29:08;;;;;;;57.97;2.47;;;16.90;99.90;;;;;;5051923;28;20514;-74
2021/06/29 04:31:34;;;;;;;58.13;2.70;;;16.90;99.90;;;;;;5052288;28;20529;-74
2021/06/29 04:34:01;;;;;;;58.00;2.60;;;16.90;99.90;;;;;;5052507;28;20565;-73
2021/06/29 04:36:28;;;;;;;58.07;2.70;;;16.90;99.90;;;;;;5052472;28;20454;-74
2021/06/29 04:38:55;;;;;;;58.20;2.60;;;16.90;99.90;;;;;;5052390;28;20451;-74
2021/06/29 04:41:22;;;;;;;57.90;2.53;;;16.90;99.90;;;;;;5052040;28;20949;-74
2021/06/29 04:43:49;;;;;;;57.87;2.50;;;16.90;99.90;;;;;;5052344;28;20561;-74
2021/06/29 04:46:17;;;;;;;58.00;2.80;;;16.90;99.90;;;;;;5052494;28;20450;-73
2021/06/29 04:48:45;;;;;;;57.77;2.40;;;17.00;99.90;;;;;;5052253;28;20917;-74
2021/06/29 04:51:12;;;;;;;57.77;2.43;;;16.90;99.90;;;;;;5051978;28;21005;-75
2021/06/29 04:53:39;;;;;;;57.97;2.73;;;17.00;99.90;;;;;;5051896;28;20476;-72
2021/06/29 04:56:16;;;;;;;58.07;2.50;;;16.90;99.90;;;;;;5052238;28;20533;-72
2021/06/29 04:58:44;;;;;;;58.17;2.60;;;16.90;99.90;;;;;;5052166;28;20450;-73
2021/06/29 05:01:11;;;;;;;58.27;2.70;;;16.80;99.90;;;;;;5051954;28;20457;-73
2021/06/29 05:03:39;;;;;;;59.00;3.53;;;16.80;99.90;;;;;;5051803;28;20565;-73
2021/06/29 05:06:06;;;;;;;57.47;2.50;;;16.80;99.90;;;;;;5051956;28;20460;-72
2021/06/29 05:08:33;;;;;;;58.07;2.80;;;16.80;99.90;;;;;;5052208;28;20577;-74
2021/06/29 05:10:59;;;;;;;58.17;2.70;;;16.80;99.90;;;;;;5051674;28;20532;-73
2021/06/29 05:13:26;;;;;;;58.07;2.70;;;16.70;99.90;;;;;;5051589;28;20557;-73
2021/06/29 05:15:53;;;;;;;58.10;2.80;;;16.80;99.90;;;;;;5051949;28;20532;-72
2021/06/29 05:18:20;;;;;;;58.10;3.20;;;16.80;99.90;;;;;;5051864;28;20486;-72
2021/06/29 05:20:49;;;;;;;58.17;2.60;;;16.80;99.90;;;;;;5051802;28;20530;-73
2021/06/29 05:23:15;;;;;;;58.07;2.50;;;16.80;99.90;;;;;;5051546;28;20493;-72
2021/06/29 05:25:42;;;;;;;58.10;2.50;;;16.90;99.90;;;;;;5051871;28;21026;-72
2021/06/29 05:28:09;;;;;;;57.93;2.80;;;16.80;99.90;;;;;;5051720;28;20487;-72
2021/06/29 05:30:36;;;;;;;58.07;2.70;;;16.80;99.90;;;;;;5051823;28;20449;-72
2021/06/29 05:33:03;;;;;;;58.17;2.70;;;16.90;99.90;;;;;;5051321;28;20553;-72
2021/06/29 05:35:30;;;;;;;57.87;2.63;;;17.00;99.90;;;;;;5051384;28;20482;-72
2021/06/29 05:38:00;;;;;;;58.03;2.50;;;17.00;99.90;;;;;;5051768;28;20450;-73
2021/06/29 05:40:27;;;;;;;57.97;2.70;;;17.00;99.90;;;;;;5054508;28;20493;-73
2021/06/29 05:42:54;;;;;;;57.87;2.50;;;17.00;99.90;;;;;;5055482;28;20508;-72
2021/06/29 05:45:21;;;;;;;58.27;2.60;;;17.10;99.90;;;;;;5055595;28;20992;-73
2021/06/29 05:47:48;;;;;;;58.37;2.63;;;17.10;99.90;;;;;;5055604;28;20546;-73
2021/06/29 05:50:15;;;;;;;57.87;2.77;;;17.10;99.90;;;;;;5055356;28;20497;-72
2021/06/29 05:52:42;;;;;;;57.53;2.63;;;17.10;99.90;;;;;;5055520;28;20467;-73
2021/06/29 05:55:12;;;;;;;59.00;3.53;;;17.20;99.90;;;;;;5055531;28;20530;-73
2021/06/29 05:57:39;;;;;;;57.77;2.60;;;17.20;99.90;;;;;;5055487;28;20451;-72
2021/06/29 06:00:08;;;;;;;57.87;2.50;;;17.30;99.90;;;;;;5055360;28;20475;-72
2021/06/29 06:02:34;;;;;;;58.13;2.90;;;17.30;99.90;;;;;;5054847;28;20470;-72
2021/06/29 06:05:01;;;;;;;57.63;2.50;;;17.30;99.90;;;;;;5055460;28;20905;-73
2021/06/29 06:07:28;;;;;;;57.83;2.70;;;17.40;99.90;;;;;;5055535;28;20441;-74
2021/06/29 06:09:55;;;;;;;58.07;2.70;;;17.40;99.90;;;;;;5055151;28;20529;-72
2021/06/29 06:12:23;;;;;;;58.10;2.80;;;17.50;99.90;;;;;;5054772;28;20956;-73
2021/06/29 06:14:50;;;;;;;58.00;2.90;;;17.50;99.90;;;;;;5055188;28;20520;-73
2021/06/29 06:17:17;;;;;;;57.83;2.63;;;17.50;99.90;;;;;;5055015;28;20556;-73
2021/06/29 06:19:44;;;;;;;57.93;2.63;;;17.50;99.90;;;;;;5054926;28;20536;-73
2021/06/29 06:22:11;;;;;;;58.20;2.60;;;17.50;99.90;;;;;;5054680;28;20531;-75
2021/06/29 06:24:38;;;;;;;57.93;2.70;;;17.60;99.90;;;;;;5054901;28;21051;-73
2021/06/29 06:27:07;;;;;;;57.97;2.60;;;17.60;99.90;;;;;;5055036;28;20454;-73
2021/06/29 06:29:36;;;;;;;58.27;2.80;;;17.80;99.90;;;;;;5054731;28;20489;-73
2021/06/29 06:32:02;;;;;;;58.00;2.70;;;17.90;99.90;;;;;;5054364;28;20891;-73
2021/06/29 06:34:29;;;;;;;57.87;2.50;;;18.10;99.90;;;;;;5054586;28;20553;-73
2021/06/29 06:36:56;;;;;;;58.07;2.50;;;18.20;99.90;;;;;;5054863;28;20572;-73
2021/06/29 06:39:23;;;;;;;58.07;3.00;;;18.40;99.90;;;;;;5054668;28;20474;-73
2021/06/29 06:41:50;;;;;;;57.57;2.60;;;18.50;99.90;;;;;;5054253;28;20965;-73
2021/06/29 06:44:17;;;;;;;57.80;2.50;;;18.60;99.90;;;;;;5054426;28;20575;-73
2021/06/29 06:46:45;;;;;;;58.17;2.53;;;18.70;99.90;;;;;;5054422;28;20954;-73
2021/06/29 06:49:12;;;;;;;58.37;2.97;;;18.80;99.90;;;;;;5054410;28;20591;-73
2021/06/29 06:51:39;;;;;;;58.37;3.10;;;18.80;99.90;;;;;;5053394;28;20455;-73
2021/06/29 06:54:06;;;;;;;58.60;3.93;;;18.70;99.90;;;;;;5054483;28;20503;-74
2021/06/29 06:56:33;;;;;;;57.87;2.60;;;18.70;99.90;;;;;;5054364;28;20538;-73
2021/06/29 06:59:00;;;;;;;58.70;2.90;;;18.60;99.90;;;;;;5054258;28;20490;-74
2021/06/29 07:01:27;;;;;;;58.07;3.00;;;18.60;99.90;;;;;;5054309;28;20452;-72
2021/06/29 07:03:55;;;;;;;58.27;2.70;;;18.50;99.90;;;;;;5054184;28;20551;-73
2021/06/29 07:06:21;;;;;;;58.07;2.50;;;18.50;99.90;;;;;;5054079;28;20491;-73
2021/06/29 07:08:48;;;;;;;58.90;3.87;;;18.40;99.90;;;;;;5054007;28;20486;-73
2021/06/29 07:11:16;;;;;;;57.87;2.53;;;18.40;99.90;;;;;;5053934;28;20479;-73
2021/06/29 07:13:43;;;;;;;58.27;2.60;;;18.30;99.90;;;;;;5053610;28;20842;-74
2021/06/29 07:16:09;;;;;;;58.40;2.73;;;18.30;99.90;;;;;;5053954;28;20532;-73
2021/06/29 07:18:36;;;;;;;58.30;2.77;;;18.30;99.90;;;;;;5053912;28;20541;-74
2021/06/29 07:21:05;;;;;;;57.97;2.83;;;18.30;99.90;;;;;;5054289;28;20491;-73
2021/06/29 07:23:32;;;;;;;58.47;2.60;;;18.40;99.90;;;;;;5053500;28;20928;-73
2021/06/29 07:25:59;;;;;;;57.97;2.70;;;18.30;99.90;;;;;;5053645;28;20444;-74
2021/06/29 07:28:26;;;;;;;58.03;2.60;;;18.40;99.90;;;;;;5054046;28;20539;-73
2021/06/29 07:30:52;;;;;;;58.30;2.67;;;18.40;99.90;;;;;;5053765;28;20571;-75
2021/06/29 07:33:19;;;;;;;57.73;2.40;;;18.50;99.90;;;;;;5053462;28;20551;-73
2021/06/29 07:35:46;;;;;;;58.07;2.60;;;18.50;99.90;;;;;;5053475;28;20534;-73
2021/06/29 07:38:14;;;;;;;58.50;2.67;;;18.60;99.90;;;;;;5053551;28;20487;-74
2021/06/29 07:40:41;;;;;;;58.00;2.53;;;18.60;99.90;;;;;;5053452;28;20451;-74
2021/06/29 07:43:08;;;;;;;58.30;2.47;;;18.60;99.90;;;;;;5053312;28;20543;-73
2021/06/29 07:45:35;;;;;;;58.20;3.13;;;18.70;99.90;;;;;;5053778;28;20535;-74
2021/06/29 07:48:02;;;;;;;58.67;3.30;;;18.70;99.90;;;;;;5053528;28;20444;-73
2021/06/29 07:50:30;;;;;;;57.97;2.80;;;18.80;99.90;;;;;;5053288;28;20480;-75
2021/06/29 07:52:58;;;;;;;59.37;3.33;;;18.80;99.90;;;;;;5052783;28;20464;-76
2021/06/29 07:55:26;;;;;;;57.97;2.80;;;18.80;99.90;;;;;;5053445;28;20452;-74
2021/06/29 07:57:53;;;;;;;58.27;2.60;;;18.80;99.90;;;;;;5053299;28;20487;-76
2021/06/29 08:00:21;;;;;;;58.17;2.47;;;18.80;99.90;;;;;;5051781;28;20548;-74
2021/06/29 08:02:48;;;;;;;58.13;2.50;;;18.80;99.90;;;;;;5045573;28;20465;-75
2021/06/29 08:05:15;;;;;;;57.87;2.80;;;18.90;99.90;;;;;;5033110;28;20452;-73
2021/06/29 08:07:41;;;;;;;58.00;2.63;;;18.90;99.90;;;;;;5032773;28;20547;-76
2021/06/29 08:10:10;;;;;;;57.77;2.50;;;19.00;99.90;;;;;;5033019;28;20583;-75
2021/06/29 08:12:38;;;;;;;57.97;2.53;;;19.10;99.90;;;;;;5032620;28;20548;-75
2021/06/29 08:15:08;;;;;;;58.37;2.60;;;19.20;99.90;;;;;;5033037;28;20543;-75
2021/06/29 08:17:35;;;;;;;58.03;2.80;;;19.20;99.90;;;;;;5032747;28;20491;-75
2021/06/29 08:20:01;;;;;;;57.87;2.97;;;19.20;99.90;;;;;;5032498;28;20524;-75
2021/06/29 08:22:28;;;;;;;58.33;2.50;;;19.20;99.90;;;;;;5032104;28;20504;-77
2021/06/29 08:24:55;;;;;;;58.40;2.50;;;19.30;99.90;;;;;;5032984;28;20481;-77
2021/06/29 08:27:22;;;;;;;58.17;2.50;;;19.30;99.90;;;;;;5032919;28;20472;-75
2021/06/29 08:29:53;;;;;;;58.07;2.50;;;19.40;99.90;;;;;;5032495;28;20573;-75
2021/06/29 08:32:20;;;;;;;57.70;2.60;;;19.50;99.90;;;;;;5032683;28;20503;-77
2021/06/29 08:34:47;;;;;;;58.27;2.53;;;19.50;99.90;;;;;;5032454;28;20536;-75
2021/06/29 08:37:13;;;;;;;57.97;2.67;;;19.60;99.90;;;;;;5032565;28;20536;-75
2021/06/29 08:39:40;;;;;;;58.37;2.70;;;19.70;99.90;;;;;;5032515;28;20532;-77
2021/06/29 08:42:08;;;;;;;58.27;2.40;;;19.70;99.90;;;;;;5032005;28;20962;-75
2021/06/29 08:44:35;;;;;;;58.07;2.60;;;19.70;99.90;;;;;;5032299;28;20881;-77
2021/06/29 08:47:04;;;;;;;58.23;2.50;;;19.70;99.90;;;;;;5032289;28;20532;-77
2021/06/29 08:49:30;;;;;;;58.10;2.40;;;19.80;99.90;;;;;;5041315;28;20588;-78
2021/06/29 08:51:58;;;;;;;58.37;2.70;;;19.90;99.90;;;;;;5052330;28;20464;-77
2021/06/29 08:54:25;;;;;;;58.10;2.50;;;20.00;99.90;;;;;;5052342;28;20509;-75
2021/06/29 08:56:51;;;;;;;58.10;2.53;;;20.20;99.90;;;;;;5052180;28;20481;-76
2021/06/29 08:59:19;;;;;;;58.17;2.90;;;20.30;99.90;;;;;;5052097;28;20488;-77
2021/06/29 09:01:46;;;;;;;57.97;2.40;;;20.40;99.90;;;;;;5051934;28;20451;-76
2021/06/29 09:04:14;;;;;;;58.27;2.47;;;20.40;99.90;;;;;;5052432;28;20469;-76
2021/06/29 09:06:43;;;;;;;58.27;2.60;;;20.50;99.90;;;;;;5052180;28;20956;-75
2021/06/29 09:09:23;;;;;;;58.40;2.50;;;20.60;99.90;;;;;;5051955;28;20544;-76
2021/06/29 09:11:51;;;;;;;58.07;2.60;;;20.70;99.90;;;;;;5051890;28;20450;-76
2021/06/29 09:14:19;;;;;;;58.47;2.87;;;20.80;99.90;;;;;;5051670;28;20924;-77
2021/06/29 09:16:47;;;;;;;58.17;2.57;;;20.80;99.90;;;;;;5052001;28;20835;-78
2021/06/29 09:19:35;;;;;;;58.40;2.80;;;20.80;99.90;;;;;;5051814;28;20447;-76
2021/06/29 09:22:27;;;;;;;58.37;2.67;;;20.80;99.90;;;;;;5051498;28;20448;-76
2021/06/29 09:24:55;;;;;;;57.97;2.60;;;21.00;99.90;;;;;;5051734;28;20579;-77
2021/06/29 09:27:41;;;;;;;58.37;2.70;;;21.10;99.90;;;;;;5052562;28;20531;-76
2021/06/29 09:30:29;;;;;;;58.27;2.70;;;21.20;99.90;;;;;;5052529;28;20480;-76
2021/06/29 09:32:59;;;;;;;58.60;2.90;;;21.30;99.90;;;;;;5051278;28;20472;-76
2021/06/29 09:35:28;;;;;;;57.97;2.50;;;21.30;99.90;;;;;;5052039;28;20451;-75
2021/06/29 09:37:56;;;;;;;60.00;2.45;;;21.20;99.90;;;;;;5051858;28;20450;-76
2021/06/29 09:40:24;;;;;;;57.97;2.47;;;21.10;99.90;;;;;;5051204;28;20229;-76
2021/06/29 09:42:52;;;;;;;58.47;2.90;;;21.00;99.90;;;;;;5051945;28;20503;-78
2021/06/29 09:45:33;;;;;;;58.03;2.60;;;21.00;99.90;;;;;;5051187;28;20483;-78
2021/06/29 09:48:01;;;;;;;58.47;2.40;;;21.10;99.90;;;;;;5054545;28;20788;-77
2021/06/29 09:50:46;;;;;;;58.20;2.60;;;21.20;99.90;;;;;;5051884;28;20487;-76
2021/06/29 09:53:27;;;;;;;58.67;2.40;;;21.30;99.90;;;;;;5057585;28;20500;-78
2021/06/29 09:55:56;;;;;;;57.97;2.33;;;21.40;99.90;;;;;;5050187;28;20925;-75
2021/06/29 09:58:24;;;;;;;57.97;2.40;;;21.50;99.90;;;;;;5051750;28;20450;-76
2021/06/29 10:00:53;;;;;;;58.27;2.50;;;21.80;99.90;;;;;;5051596;28;20456;-75
2021/06/29 10:03:26;;;;;;;58.17;2.40;;;22.10;99.90;;;;;;5051175;28;20479;-76
2021/06/29 10:05:54;;;;;;;58.13;2.60;;;22.40;99.90;;;;;;5051759;28;20478;-75
2021/06/29 10:08:40;;;;;;;58.20;2.60;;;22.70;99.90;;;;;;5051411;28;20498;-75
2021/06/29 10:11:15;;;;;;;58.40;2.50;;;22.90;99.90;;;;;;5051420;28;20522;-76
2021/06/29 10:13:46;;;;;;;58.30;2.40;;;23.00;97.80;;;;;;5051106;28;20468;-75
2021/06/29 10:16:15;;;;;;;57.87;2.57;;;23.10;90.10;;;;;;5051764;28;20450;-75
2021/06/29 10:18:48;;;;;;;58.40;2.50;;;23.30;92.60;;;;;;5051206;28;20459;-75
2021/06/29 10:21:22;;;;;;;58.17;2.30;;;23.40;91.20;;;;;;5051228;28;20453;-75
2021/06/29 10:23:51;;;;;;;57.93;2.10;;;23.60;91.90;;;;;;5051127;28;20488;-75
2021/06/29 10:26:18;;;;;;;58.20;2.70;;;23.70;82.10;;;;;;5051138;28;20813;-75
2021/06/29 10:28:47;;;;;;;57.77;2.23;;;24.40;54.30;;;;;;5054595;28;20448;-75
2021/06/29 10:31:19;;;;;;;57.90;2.40;;;25.70;29.10;;;;;;5054597;28;20520;-75
2021/06/29 10:33:48;;;;;;;58.00;2.23;;;26.90;25.50;;;;;;5054926;28;20915;-75
2021/06/29 10:36:19;;;;;;;57.70;2.20;;;27.90;19.70;;;;;;5054739;28;20453;-73
2021/06/29 10:38:46;;;;;;;57.73;2.30;;;29.00;17.40;;;;;;5054837;28;20447;-75
2021/06/29 10:41:14;;;;;;;57.57;2.27;;;29.80;10.20;;;;;;5054606;28;20455;-75
2021/06/29 10:43:42;;;;;;;57.60;2.43;;;30.00;8.10;;;;;;5054244;28;20464;-74
2021/06/29 10:46:35;;;;;;;57.23;2.00;;;30.10;8.10;;;;;;5054667;28;20448;-75
2021/06/29 10:49:27;;;;;;;57.47;2.30;;;30.50;6.80;;;;;;5054528;28;20999;-74
2021/06/29 10:51:56;;;;;;;58.53;3.53;;;30.80;7.30;;;;;;5054259;28;20490;-74
2021/06/29 10:54:46;;;;;;;57.47;2.07;;;30.80;4.00;;;;;;5054054;28;20507;-75
2021/06/29 10:57:16;;;;;;;57.50;2.07;;;30.30;4.10;;;;;;5053095;28;20452;-75
2021/06/29 10:59:46;;;;;;;57.37;2.20;;;30.20;3.00;;;;;;5045891;28;20459;-75
2021/06/29 11:02:16;;;;;;;57.37;2.20;;;29.40;2.70;;;;;;5034049;28;20511;-75
2021/06/29 11:04:53;;;;;;;57.50;2.23;;;28.40;4.80;;;;;;5034071;28;20552;-75
2021/06/29 11:07:41;;;;;;;57.87;2.10;;;27.50;7.20;;;;;;5034492;28;20459;-75
2021/06/29 11:10:10;;;;;;;57.37;1.97;;;27.00;5.80;;;;;;5034157;28;22790;-75
2021/06/29 11:12:40;;;;;;;57.63;2.20;;;27.80;1.00;;;;;;5033751;28;20469;-75
2021/06/29 11:15:09;;;;;;;57.73;2.10;;;27.90;1.30;;;;;;5033949;28;20480;-75
2021/06/29 11:17:55;;;;;;;57.57;2.17;;;28.40;1.60;;;;;;5034466;28;20528;-75
2021/06/29 11:20:24;;;;;;;57.57;2.20;;;29.50;3.00;;;;;;5034162;28;20875;-75
2021/06/29 11:23:01;;;;;;;57.70;2.30;;;30.40;1.00;;;;;;5033514;28;20536;-75
2021/06/29 11:25:37;;;;;;;57.70;2.20;;;30.60;1.00;;;;;;5034270;28;20982;-75
2021/06/29 11:28:06;;;;;;;57.40;2.00;;;31.20;1.00;;;;;;5032947;28;20976;-76
2021/06/29 11:30:59;;;;;;;57.47;2.17;;;31.90;1.00;;;;;;5042818;28;20476;-75
2021/06/29 11:33:49;;;;;;;57.17;2.30;;;32.10;1.00;;;;;;5054056;28;20475;-76
2021/06/29 11:36:44;;;;;;;57.40;2.40;;;32.10;1.00;;;;;;5053924;28;20459;-76
2021/06/29 11:39:34;;;;;;;57.30;2.40;;;32.70;1.00;;;;;;5053655;28;20560;-76
2021/06/29 11:42:07;;;;;;;57.07;2.10;;;33.10;1.00;;;;;;5053213;28;20440;-76
2021/06/29 11:44:46;;;;;;;57.47;2.10;;;32.10;1.00;;;;;;5053667;28;20872;-76
2021/06/29 11:47:15;;;;;;;57.17;1.90;;;31.00;1.00;;;;;;5053589;28;20444;-76
2021/06/29 11:49:50;;;;;;;57.40;2.10;;;30.00;1.00;;;;;;5053126;28;20444;-76
2021/06/29 11:52:36;;;;;;;57.47;2.37;;;29.10;1.10;;;;;;5052103;28;20571;-75
2021/06/29 11:55:16;;;;;;;57.47;2.10;;;28.40;2.60;;;;;;5052026;28;21190;-75
2021/06/29 11:57:46;;;;;;;57.63;2.20;;;27.90;1.00;;;;;;5053857;28;20440;-75
2021/06/29 12:00:25;;;;;;;57.57;2.20;;;28.00;1.00;;;;;;5051745;28;20833;-75
2021/06/29 12:02:54;;;;;;;57.67;2.10;;;28.70;1.00;;;;;;5052816;28;20551;-75
2021/06/29 12:05:23;;;;;;;57.60;2.27;;;28.60;1.00;;;;;;5052969;28;20456;-75
2021/06/29 12:07:51;;;;;;;57.73;2.07;;;28.00;1.00;;;;;;5053302;28;20484;-75
2021/06/29 12:10:22;;;;;;;58.00;2.37;;;27.40;5.20;;;;;;5053080;28;20886;-75
2021/06/29 12:12:50;;;;;;;57.73;2.20;;;27.10;2.50;;;;;;5052778;28;20579;-75
2021/06/29 12:15:23;;;;;;;57.67;2.30;;;27.00;3.90;;;;;;5043210;28;20531;-77
2021/06/29 12:17:58;;;;;;;57.47;2.40;;;27.10;2.30;;;;;;5033090;28;20466;-78
2021/06/29 12:20:28;;;;;;;57.47;2.20;;;27.80;1.00;;;;;;5032932;28;20495;-78
2021/06/29 12:22:56;;;;;;;57.27;2.33;;;29.20;1.00;;;;;;5032612;28;20997;-78
2021/06/29 12:25:27;;;;;;;57.67;2.47;;;30.60;1.00;;;;;;5032774;28;20456;-78
2021/06/29 12:27:56;;;;;;;57.07;2.00;;;31.80;1.00;;;;;;5032655;28;20542;-77
2021/06/29 12:30:30;;;;;;;57.80;2.30;;;32.40;1.00;;;;;;5033160;28;20496;-78
2021/06/29 12:32:58;;;;;;;57.20;2.17;;;32.90;1.00;;;;;;5032449;28;20483;-77
2021/06/29 12:35:29;;;;;;;57.17;2.10;;;33.20;1.00;;;;;;5032615;28;20453;-78
2021/06/29 12:38:02;;;;;;;56.97;2.00;;;33.50;1.00;;;;;;5032598;28;20480;-77
2021/06/29 12:40:32;;;;;;;56.77;2.10;;;33.50;1.00;;;;;;5032312;28;20837;-77
2021/06/29 12:43:00;;;;;;;57.57;2.73;;;32.70;1.00;;;;;;5032324;28;20574;-76
2021/06/29 12:45:31;;;;;;;57.13;2.00;;;31.70;1.00;;;;;;5032282;28;20532;-77
2021/06/29 12:48:06;;;;;;;57.30;2.10;;;30.70;1.00;;;;;;5035015;28;20454;-78